createdAt,value
2018-08-14T00:00:40.756Z,22.90
2018-08-14T00:03:15.693Z,22.87
2018-08-14T00:05:45.351Z,22.85
2018-08-14T00:08:15.815Z,22.86
2018-08-14T00:10:57.640Z,23.07
2018-08-14T00:13:27.048Z,23.14
2018-08-14T00:15:57.981Z,23.38
2018-08-14T00:18:27.248Z,23.36
2018-08-14T00:20:56.339Z,23.31
2018-08-14T00:23:25.463Z,23.26
2018-08-14T00:25:54.728Z,23.28
2018-08-14T00:28:23.866Z,23.35
2018-08-14T00:30:52.862Z,23.40
2018-08-14T00:33:24.095Z,23.40
2018-08-14T00:35:53.474Z,23.35
2018-08-14T00:38:22.839Z,23.25
2018-08-14T00:41:11.061Z,23.12
2018-08-14T00:43:40.227Z,22.90
2018-08-14T00:46:09.466Z,22.77
2018-08-14T00:48:38.654Z,22.72
2018-08-14T00:53:36.447Z,22.74
2018-08-14T00:56:06.087Z,22.75
2018-08-14T00:58:35.244Z,22.77
2018-08-14T01:01:05.104Z,22.77
2018-08-14T01:03:37.654Z,22.82
2018-08-14T01:06:07.559Z,22.83
2018-08-14T01:08:46.380Z,22.69
2018-08-14T01:11:19.104Z,22.55
2018-08-14T01:13:53.902Z,22.46
2018-08-14T01:16:24.663Z,22.47
2018-08-14T01:18:56.945Z,22.53
2018-08-14T01:21:26.511Z,22.53
2018-08-14T01:24:08.818Z,22.44
2018-08-14T01:26:45.206Z,22.38
2018-08-14T01:29:15.172Z,22.34
2018-08-14T01:31:44.361Z,22.41
2018-08-14T01:34:14.208Z,22.42
2018-08-14T01:37:05.838Z,22.41
2018-08-14T01:39:57.203Z,22.47
2018-08-14T01:42:53.641Z,22.51
2018-08-14T01:45:25.419Z,22.50
2018-08-14T01:47:55.341Z,22.55
2018-08-14T01:50:27.615Z,22.64
2018-08-14T01:56:04.302Z,22.73
2018-08-14T01:59:18.555Z,22.74
2018-08-14T02:01:49.985Z,22.75
2018-08-14T02:04:27.147Z,22.33
2018-08-14T02:06:58.853Z,21.94
2018-08-14T02:09:34.153Z,21.51
2018-08-14T02:12:08.925Z,21.27
2018-08-14T02:14:38.736Z,21.38
2018-08-14T02:17:11.564Z,21.09
2018-08-14T02:19:48.650Z,21.25
2018-08-14T02:22:18.448Z,21.12
2018-08-14T02:24:56.563Z,20.97
2018-08-14T02:27:29.971Z,20.89
2018-08-14T02:30:03.997Z,21.36
2018-08-14T02:32:43.351Z,21.47
2018-08-14T02:35:23.113Z,21.34
2018-08-14T02:38:01.443Z,21.36
2018-08-14T02:40:34.584Z,21.40
2018-08-14T02:43:04.614Z,21.40
2018-08-14T02:45:37.211Z,21.35
2018-08-14T02:48:15.208Z,21.17
2018-08-14T02:50:46.966Z,21.10
2018-08-14T02:53:17.440Z,21.01
2018-08-14T02:56:06.048Z,21.05
2018-08-14T02:58:43.236Z,20.94
2018-08-14T03:01:13.111Z,20.65
2018-08-14T03:04:01.287Z,20.44
2018-08-14T03:06:41.717Z,20.17
2018-08-14T03:09:19.974Z,20.04
2018-08-14T03:12:11.077Z,20.03
2018-08-14T03:18:09.259Z,20.05
2018-08-14T03:20:41.083Z,19.82
2018-08-14T03:23:22.283Z,19.74
2018-08-14T03:26:06.308Z,19.56
2018-08-14T03:28:51.098Z,19.64
2018-08-14T03:31:31.828Z,19.68
2018-08-14T03:34:19.128Z,19.72
2018-08-14T03:36:54.277Z,19.70
2018-08-14T03:39:34.865Z,19.85
2018-08-14T03:42:07.219Z,19.65
2018-08-14T03:44:46.256Z,19.63
2018-08-14T03:47:37.745Z,19.50
2018-08-14T03:50:15.450Z,19.42
2018-08-14T03:52:46.269Z,19.96
2018-08-14T03:55:20.808Z,19.96
2018-08-14T03:57:50.844Z,20.11
2018-08-14T04:00:20.571Z,20.21
2018-08-14T04:02:50.021Z,20.29
2018-08-14T04:05:19.321Z,20.42
2018-08-14T04:07:57.383Z,20.48
2018-08-14T04:10:26.674Z,20.39
2018-08-14T04:12:55.949Z,20.42
2018-08-14T04:15:25.219Z,20.33
2018-08-14T04:18:01.503Z,20.27
2018-08-14T04:20:32.271Z,20.25
2018-08-14T04:23:01.334Z,20.39
2018-08-14T04:25:30.460Z,20.42
2018-08-14T04:27:59.622Z,20.40
2018-08-14T04:30:28.916Z,20.34
2018-08-14T04:32:59.264Z,20.35
2018-08-14T04:35:28.437Z,20.44
2018-08-14T04:37:57.846Z,20.40
2018-08-14T04:40:27.030Z,20.28
2018-08-14T04:42:56.372Z,20.20
2018-08-14T04:49:05.590Z,20.34
2018-08-14T04:51:52.596Z,20.47
2018-08-14T04:54:23.049Z,20.60
2018-08-14T04:56:52.253Z,20.59
2018-08-14T04:59:21.515Z,20.58
2018-08-14T05:01:50.767Z,20.63
2018-08-14T05:04:20.175Z,20.56
2018-08-14T05:06:49.467Z,20.56
2018-08-14T05:09:18.758Z,20.62
2018-08-14T05:11:48.923Z,20.51
2018-08-14T05:14:18.349Z,20.34
2018-08-14T05:16:47.913Z,20.18
2018-08-14T05:19:17.207Z,20.03
2018-08-14T05:21:46.582Z,19.88
2018-08-14T05:24:16.632Z,19.77
2018-08-14T05:26:45.948Z,19.78
2018-08-14T05:29:15.793Z,19.89
2018-08-14T05:31:45.342Z,19.86
2018-08-14T05:34:15.465Z,19.80
2018-08-14T05:36:45.911Z,19.79
2018-08-14T05:39:15.904Z,19.73
2018-08-14T05:41:44.987Z,19.72
2018-08-14T05:44:21.125Z,19.76
2018-08-14T05:46:50.584Z,19.72
2018-08-14T05:49:20.183Z,19.85
2018-08-14T05:51:49.588Z,19.75
2018-08-14T05:54:19.347Z,19.81
2018-08-14T05:56:48.709Z,19.84
2018-08-14T05:59:17.998Z,19.90
2018-08-14T06:01:47.524Z,19.98
2018-08-14T06:04:17.271Z,20.01
2018-08-14T06:06:54.148Z,20.01
2018-08-14T06:09:23.354Z,20.06
2018-08-14T06:11:52.479Z,20.18
2018-08-14T06:14:22.055Z,20.29
2018-08-14T06:16:51.302Z,20.39
2018-08-14T06:19:27.513Z,20.52
2018-08-14T06:21:59.892Z,20.86
2018-08-14T06:24:29.387Z,20.95
2018-08-14T06:26:59.072Z,21.16
2018-08-14T06:29:28.390Z,21.44
2018-08-14T06:31:57.878Z,21.87
2018-08-14T06:34:27.436Z,22.28
2018-08-14T06:36:56.735Z,22.57
2018-08-14T06:39:25.984Z,22.67
2018-08-14T06:41:59.005Z,22.64
2018-08-14T06:44:28.228Z,22.50
2018-08-14T06:46:57.259Z,22.32
2018-08-14T06:49:26.324Z,22.09
2018-08-14T06:52:20.181Z,21.86
2018-08-14T06:54:49.415Z,21.85
2018-08-14T06:57:18.554Z,21.87
2018-08-14T06:59:48.021Z,21.98
2018-08-14T07:02:17.599Z,21.93
2018-08-14T07:04:48.064Z,21.90
2018-08-14T07:07:17.239Z,21.94
2018-08-14T07:09:47.722Z,22.00
2018-08-14T07:12:17.267Z,22.00
2018-08-14T07:14:46.463Z,22.02
2018-08-14T07:17:20.148Z,22.06
2018-08-14T07:19:49.969Z,22.20
2018-08-14T07:22:19.063Z,21.97
2018-08-14T07:24:48.365Z,21.94
2018-08-14T07:27:18.606Z,22.18
2018-08-14T07:29:47.760Z,22.03
2018-08-14T07:32:17.301Z,22.54
2018-08-14T07:34:46.590Z,23.32
2018-08-14T07:37:16.923Z,23.76
2018-08-14T07:39:47.132Z,24.54
2018-08-14T07:42:17.071Z,25.48
2018-08-14T07:44:46.328Z,26.14
2018-08-14T07:47:15.977Z,26.21
2018-08-14T07:49:45.489Z,25.73
2018-08-14T07:52:15.295Z,26.08
2018-08-14T07:54:44.482Z,26.02
2018-08-14T07:57:14.004Z,25.32
2018-08-14T07:59:43.620Z,24.69
2018-08-14T08:02:13.427Z,24.02
2018-08-14T08:04:42.857Z,23.83
2018-08-14T08:07:12.259Z,23.57
2018-08-14T08:09:41.438Z,23.39
2018-08-14T08:12:10.769Z,23.05
2018-08-14T08:14:39.988Z,22.88
2018-08-14T08:17:10.886Z,22.85
2018-08-14T08:19:40.189Z,23.19
2018-08-14T08:22:09.916Z,23.12
2018-08-14T08:24:40.409Z,22.84
2018-08-14T08:27:10.259Z,21.93
2018-08-14T08:29:43.979Z,20.32
2018-08-14T08:32:13.632Z,18.71
2018-08-14T08:34:43.799Z,18.18
2018-08-14T08:37:13.056Z,17.66
2018-08-14T08:48:22.433Z,16.78
2018-08-14T08:50:55.600Z,16.78
2018-08-14T08:53:27.316Z,16.76
2018-08-14T08:55:57.513Z,16.69
2018-08-14T08:58:26.929Z,16.61
2018-08-14T09:00:56.298Z,16.67
2018-08-14T09:03:30.251Z,16.60
2018-08-14T09:06:06.038Z,16.62
2018-08-14T09:08:36.027Z,16.67
2018-08-14T09:11:05.772Z,16.76
2018-08-14T09:13:35.172Z,16.70
2018-08-14T09:16:04.729Z,16.74
2018-08-14T09:18:34.178Z,16.70
2018-08-14T09:21:03.839Z,16.54
2018-08-14T09:23:33.486Z,16.58
2018-08-14T09:26:03.271Z,16.66
2018-08-14T09:28:32.732Z,16.77
2018-08-14T09:31:09.366Z,16.93
2018-08-14T09:36:50.403Z,16.89
2018-08-14T09:39:19.611Z,16.98
2018-08-14T09:41:48.737Z,16.89
2018-08-14T09:44:17.979Z,16.87
2018-08-14T09:46:47.335Z,16.83
2018-08-14T09:49:16.932Z,16.75
2018-08-14T09:54:38.542Z,16.91
2018-08-14T09:57:08.570Z,16.76
2018-08-14T09:59:37.846Z,16.68
2018-08-14T10:02:12.546Z,16.61
2018-08-14T10:04:46.764Z,16.62
2018-08-14T10:07:19.061Z,16.70
2018-08-14T10:09:49.280Z,16.69
2018-08-14T10:12:18.536Z,16.67
2018-08-14T10:14:51.897Z,16.66
2018-08-14T10:17:21.088Z,16.64
2018-08-14T10:19:50.169Z,16.67
2018-08-14T10:22:20.213Z,17.00
2018-08-14T10:24:58.360Z,17.18
2018-08-14T10:27:27.680Z,17.00
2018-08-14T10:32:49.726Z,17.04
2018-08-14T10:35:20.506Z,17.15
2018-08-14T10:37:49.634Z,17.36
2018-08-14T10:40:20.106Z,17.55
2018-08-14T10:42:49.545Z,17.59
2018-08-14T10:45:19.447Z,17.69
2018-08-14T10:47:48.710Z,17.74
2018-08-14T10:50:22.054Z,17.88
2018-08-14T10:52:51.601Z,18.16
2018-08-14T10:55:21.352Z,18.38
2018-08-14T10:57:51.582Z,18.49
2018-08-14T11:00:30.584Z,18.58
2018-08-14T11:03:00.930Z,18.43
2018-08-14T11:05:30.208Z,18.54
2018-08-14T11:07:59.686Z,18.60
2018-08-14T11:10:30.788Z,18.70
2018-08-14T11:13:00.080Z,19.01
2018-08-14T11:15:29.590Z,19.02
2018-08-14T11:18:03.824Z,19.16
2018-08-14T11:20:33.365Z,19.48
2018-08-14T11:25:55.817Z,19.51
2018-08-14T11:28:25.281Z,19.66
2018-08-14T11:30:54.866Z,19.81
2018-08-14T11:33:24.222Z,19.83
2018-08-14T11:35:58.727Z,19.69
2018-08-14T11:38:27.904Z,19.63
2018-08-14T11:40:57.128Z,19.76
2018-08-14T11:43:26.571Z,19.97
2018-08-14T11:45:55.537Z,19.94
2018-08-14T11:48:24.657Z,20.27
2018-08-14T11:50:54.021Z,20.66
2018-08-14T11:53:23.249Z,20.51
2018-08-14T11:55:52.523Z,20.90
2018-08-14T11:58:22.288Z,21.00
2018-08-14T12:00:51.419Z,20.82
2018-08-14T12:03:20.590Z,20.89
2018-08-14T12:05:54.152Z,21.28
2018-08-14T12:08:23.649Z,21.45
2018-08-14T12:10:52.936Z,21.64
2018-08-14T12:13:21.973Z,21.86
2018-08-14T12:15:51.197Z,22.02
2018-08-14T12:18:20.404Z,22.00
2018-08-14T12:20:49.595Z,21.89
2018-08-14T12:23:18.856Z,22.26
2018-08-14T12:25:48.122Z,22.59
2018-08-14T12:28:17.479Z,22.93
2018-08-14T12:30:47.720Z,23.07
2018-08-14T12:33:38.099Z,23.10
2018-08-14T12:36:14.675Z,22.86
2018-08-14T12:38:57.921Z,22.63
2018-08-14T12:41:27.668Z,22.59
2018-08-14T12:50:30.972Z,22.54
2018-08-14T12:53:00.119Z,22.74
2018-08-14T13:12:43.817Z,24.71
2018-08-14T13:15:25.582Z,25.07
2018-08-14T13:18:04.966Z,25.41
2018-08-14T13:20:34.375Z,25.41
2018-08-14T13:23:03.680Z,25.49
2018-08-14T13:25:33.028Z,24.93
2018-08-14T13:28:27.550Z,24.22
2018-08-14T13:31:12.573Z,24.33
2018-08-14T13:33:42.787Z,24.50
2018-08-14T13:36:12.187Z,24.76
2018-08-14T13:38:41.591Z,24.93
2018-08-14T13:41:17.346Z,25.32
2018-08-14T13:43:47.715Z,25.20
2018-08-14T13:46:17.386Z,25.21
2018-08-14T13:48:46.930Z,25.35
2018-08-14T13:51:16.584Z,24.88
2018-08-14T13:53:45.910Z,24.58
2018-08-14T13:56:15.411Z,25.25
2018-08-14T14:19:18.998Z,24.94
2018-08-14T14:21:48.258Z,25.17
2018-08-14T14:24:18.948Z,25.27
2018-08-14T14:26:48.190Z,25.59
2018-08-14T14:29:17.919Z,25.47
2018-08-14T14:31:48.023Z,25.22
2018-08-14T14:34:39.278Z,25.22
2018-08-14T14:37:10.287Z,25.01
2018-08-14T14:39:44.432Z,24.65
2018-08-14T14:42:13.989Z,24.41
2018-08-14T14:44:54.000Z,24.33
2018-08-14T14:47:23.843Z,23.97
2018-08-14T14:49:53.309Z,23.73
2018-08-14T14:52:22.358Z,23.51
2018-08-14T14:54:51.548Z,23.27
2018-08-14T14:57:20.650Z,23.16
2018-08-14T14:59:49.723Z,23.03
2018-08-14T15:02:18.808Z,22.85
2018-08-14T15:04:47.876Z,22.82
2018-08-14T15:07:17.426Z,22.81
2018-08-14T15:09:46.441Z,22.79
2018-08-14T15:12:16.007Z,22.79
2018-08-14T15:14:45.720Z,22.86
2018-08-14T15:17:15.364Z,22.90
2018-08-14T15:20:00.213Z,23.01
2018-08-14T15:22:29.592Z,23.12
2018-08-14T15:24:58.636Z,23.27
2018-08-14T15:27:27.805Z,23.44
2018-08-14T15:30:01.970Z,23.40
2018-08-14T15:32:31.301Z,23.53
2018-08-14T15:35:00.308Z,23.56
2018-08-14T15:37:29.515Z,23.49
2018-08-14T15:39:58.657Z,23.40
2018-08-14T15:42:28.626Z,23.40
2018-08-14T15:44:57.765Z,23.36
2018-08-14T15:47:27.530Z,23.43
2018-08-14T15:49:56.520Z,23.39
2018-08-14T15:52:25.574Z,23.31
2018-08-14T15:54:54.556Z,23.31
2018-08-14T15:57:23.572Z,23.43
2018-08-14T15:59:52.624Z,23.48
2018-08-14T16:02:37.885Z,23.48
2018-08-14T16:05:19.006Z,23.39
2018-08-14T16:07:48.779Z,23.41
2018-08-14T16:10:21.218Z,23.44
2018-08-14T16:12:50.355Z,23.51
2018-08-14T16:18:18.185Z,23.20
2018-08-14T16:20:47.450Z,23.21
2018-08-14T16:23:17.311Z,23.26
2018-08-14T16:25:47.389Z,23.35
2018-08-14T16:28:16.938Z,23.39
2018-08-14T16:30:46.029Z,23.39
2018-08-14T16:33:15.690Z,23.39
2018-08-14T16:35:44.824Z,23.42
2018-08-14T16:38:27.808Z,23.42
2018-08-14T16:40:57.768Z,23.44
2018-08-14T16:43:26.829Z,23.37
2018-08-14T16:46:02.582Z,23.38
2018-08-14T16:48:31.962Z,23.27
2018-08-14T16:51:04.439Z,23.20
2018-08-14T16:53:37.854Z,22.95
2018-08-14T16:56:07.309Z,22.47
2018-08-14T16:58:42.833Z,22.06
2018-08-14T17:01:11.940Z,21.68
2018-08-14T17:03:41.182Z,21.40
2018-08-14T17:06:11.108Z,21.14
2018-08-14T17:08:40.474Z,20.99
2018-08-14T17:11:10.269Z,20.97
2018-08-14T17:13:40.382Z,21.17
2018-08-14T17:16:09.408Z,21.26
2018-08-14T17:18:38.667Z,21.18
2018-08-14T17:21:06.249Z,21.17
2018-08-14T17:23:35.371Z,21.27
2018-08-14T17:26:04.517Z,21.46
2018-08-14T17:28:33.901Z,21.51
2018-08-14T17:31:04.277Z,21.59
2018-08-14T17:33:33.385Z,21.45
2018-08-14T17:36:03.447Z,21.14
2018-08-14T17:38:33.022Z,20.89
2018-08-14T17:41:04.463Z,20.80
2018-08-14T17:43:33.931Z,20.72
2018-08-14T17:46:03.054Z,20.63
2018-08-14T17:48:35.755Z,20.57
2018-08-14T17:51:04.940Z,20.67
2018-08-14T17:53:54.818Z,20.49
2018-08-14T17:56:26.057Z,20.45
2018-08-14T17:59:01.080Z,20.66
2018-08-14T18:01:33.044Z,20.84
2018-08-14T18:04:02.945Z,20.85
2018-08-14T18:06:33.239Z,20.83
2018-08-14T18:09:10.890Z,20.75
2018-08-14T18:28:54.129Z,20.00
2018-08-14T18:31:23.150Z,19.89
2018-08-14T18:33:52.084Z,19.75
2018-08-14T18:36:21.106Z,19.66
2018-08-14T18:38:50.243Z,19.76
2018-08-14T18:41:19.227Z,19.81
2018-08-14T18:43:52.843Z,19.83
2018-08-14T18:46:21.852Z,19.96
2018-08-14T18:48:50.870Z,20.37
2018-08-14T18:51:20.021Z,20.43
2018-08-14T18:53:49.155Z,20.38
2018-08-14T18:56:18.476Z,20.49
2018-08-14T18:58:47.603Z,20.58
2018-08-14T19:01:18.100Z,20.40
2018-08-14T19:03:47.443Z,20.13
2018-08-14T19:06:18.033Z,19.94
2018-08-14T19:09:15.612Z,19.85
2018-08-14T19:11:56.161Z,19.97
2018-08-14T19:14:25.550Z,20.52
2018-08-14T19:16:55.462Z,20.68
2018-08-14T19:19:24.362Z,20.62
2018-08-14T19:21:53.902Z,20.58
2018-08-14T19:24:22.873Z,20.58
2018-08-14T19:26:51.924Z,20.45
2018-08-14T19:29:20.940Z,20.60
2018-08-14T19:31:49.845Z,20.55
2018-08-14T19:34:19.875Z,20.33
2018-08-14T19:36:48.950Z,20.08
2018-08-14T19:39:18.129Z,19.96
2018-08-14T19:41:47.129Z,20.29
2018-08-14T19:44:16.868Z,20.46
2018-08-14T19:46:47.477Z,20.48
2018-08-14T19:49:17.332Z,20.44
2018-08-14T19:51:46.943Z,20.39
2018-08-14T19:54:16.805Z,20.39
2018-08-14T19:56:46.092Z,20.48
2018-08-14T19:59:16.163Z,20.56
2018-08-14T20:01:48.441Z,20.49
2018-08-14T20:04:18.118Z,20.46
2018-08-14T20:06:47.437Z,20.35
2018-08-14T20:09:21.837Z,20.31
2018-08-14T20:11:50.822Z,20.30
2018-08-14T20:14:19.873Z,20.17
2018-08-14T20:16:48.983Z,20.21
2018-08-14T20:19:17.907Z,20.12
2018-08-14T20:21:47.087Z,19.94
2018-08-14T20:24:16.819Z,19.87
2018-08-14T20:26:45.879Z,19.83
2018-08-14T20:29:15.311Z,19.81
2018-08-14T20:31:44.460Z,19.76
2018-08-14T20:34:13.686Z,19.68
2018-08-14T20:36:42.780Z,19.90
2018-08-14T20:39:11.881Z,19.89
2018-08-14T20:41:41.786Z,19.64
2018-08-14T20:44:10.859Z,19.43
2018-08-14T20:46:40.103Z,19.52
2018-08-14T20:49:09.040Z,19.80
2018-08-14T20:54:30.118Z,19.92
2018-08-14T20:56:59.568Z,19.97
2018-08-14T20:59:28.627Z,19.89
2018-08-14T21:02:15.742Z,19.82
2018-08-14T21:04:54.516Z,19.75
2018-08-14T21:07:34.885Z,19.68
2018-08-14T21:10:15.705Z,19.63
2018-08-14T21:12:57.626Z,19.59
2018-08-14T21:15:48.672Z,19.39
2018-08-14T21:18:24.068Z,19.50
2018-08-14T21:20:53.067Z,19.42
2018-08-14T21:23:23.123Z,19.33
2018-08-14T21:25:52.155Z,19.65
2018-08-14T21:28:21.109Z,19.53
2018-08-14T21:30:56.424Z,19.35
2018-08-14T21:33:26.402Z,19.34
2018-08-14T21:35:55.497Z,19.30
2018-08-14T21:38:24.630Z,19.27
2018-08-14T21:41:04.182Z,19.22
2018-08-14T21:43:33.386Z,19.30
2018-08-14T21:46:08.856Z,19.31
2018-08-14T21:48:39.338Z,19.33
2018-08-14T21:51:17.036Z,19.50
2018-08-14T21:53:46.190Z,19.37
2018-08-14T21:56:16.445Z,19.46
2018-08-14T21:58:46.806Z,19.27
2018-08-14T22:01:16.997Z,19.30
2018-08-14T22:03:47.206Z,19.26
2018-08-14T22:06:19.212Z,19.17
2018-08-14T22:09:12.682Z,19.31
2018-08-14T22:11:41.800Z,19.27
2018-08-14T22:14:11.583Z,19.21
2018-08-14T22:16:41.603Z,19.36
2018-08-14T22:19:10.752Z,19.52
2018-08-14T22:21:43.985Z,19.49
2018-08-14T22:24:16.159Z,19.55
2018-08-14T22:26:45.269Z,19.58
2018-08-14T22:29:15.077Z,19.37
2018-08-14T22:32:14.528Z,19.21
2018-08-14T22:34:43.671Z,19.21
2018-08-14T22:37:45.796Z,19.17
2018-08-14T22:40:18.062Z,19.16
2018-08-14T22:42:47.367Z,19.17
2018-08-14T22:45:20.310Z,19.12
2018-08-14T22:48:04.247Z,19.15
2018-08-14T22:50:34.309Z,19.18
2018-08-14T22:53:23.836Z,19.18
2018-08-14T22:55:53.130Z,19.20
2018-08-14T22:58:23.386Z,19.16
2018-08-14T23:00:52.573Z,19.17
2018-08-14T23:03:46.353Z,19.08
2018-08-14T23:06:22.784Z,19.18
2018-08-14T23:08:51.991Z,19.13
2018-08-14T23:11:21.036Z,19.07
2018-08-14T23:13:50.103Z,18.96
2018-08-14T23:16:22.231Z,19.11
2018-08-14T23:18:51.709Z,19.30
2018-08-14T23:21:20.774Z,19.15
2018-08-14T23:23:50.958Z,19.03
2018-08-14T23:29:08.975Z,19.02
2018-08-14T23:32:06.677Z,19.03
2018-08-14T23:34:42.079Z,19.06
2018-08-14T23:37:28.803Z,19.10
2018-08-14T23:40:02.042Z,19.00
2018-08-14T23:43:02.363Z,18.88
2018-08-14T23:45:32.340Z,18.74
2018-08-14T23:48:01.473Z,18.61
2018-08-14T23:50:32.587Z,18.53
2018-08-14T23:53:01.813Z,18.72
2018-08-14T23:55:30.909Z,18.92
2018-08-14T23:58:01.719Z,18.76
